Milwaukee, Wisconsin
Traffic Map
Current Weather Conditions
Milwaukee, Wisconsin
Few Clouds
Few Clouds

Feels Like: -1°
Wind Chill: -1° Ceiling: Unl
Heat Index: Visibility: 10mi
Dew Point: -5° Wind: 7mph
Humidity: 59% Direction: 240° (WSW)
Pressure: 30.01in Gusts: 0mph
Raw Report DataKMKE 270452Z 24006KT 10SM FEW070 02/M05 A3001 RMK AO2 SLP171 T00221050
Traffic Incident Summary
Active as of:
Severity:
Category:
InformationThere was an issue retrieving the traffic information for this location. Please try a different location or try again shortly.
Advertisements
Track Severe Weather on mobile